createdAt,value
2022-09-13T00:02:09.986Z,12.35
2022-09-13T00:04:36.587Z,12.32
2022-09-13T00:07:03.017Z,12.05
2022-09-13T00:09:29.459Z,13.40
2022-09-13T00:11:55.894Z,14.02
2022-09-13T00:14:22.476Z,12.35
2022-09-13T00:16:48.974Z,9.52
2022-09-13T00:19:15.484Z,11.60
2022-09-13T00:21:41.923Z,11.17
2022-09-13T00:24:08.483Z,10.77
2022-09-13T00:26:34.886Z,10.88
2022-09-13T00:29:01.333Z,10.90
2022-09-13T00:31:28.074Z,12.50
2022-09-13T00:33:54.925Z,11.15
2022-09-13T00:36:21.365Z,12.13
2022-09-13T00:38:47.845Z,14.52
2022-09-13T00:41:14.996Z,12.35
2022-09-13T00:43:45.949Z,16.67
2022-09-13T00:46:14.050Z,14.45
2022-09-13T00:48:40.616Z,15.00
2022-09-13T00:51:07.104Z,13.55
2022-09-13T00:53:34.031Z,17.38
2022-09-13T00:56:01.783Z,17.88
2022-09-13T00:58:35.262Z,17.58
2022-09-13T01:01:02.550Z,14.27
2022-09-13T01:03:29.969Z,15.05
2022-09-13T01:05:58.125Z,14.15
2022-09-13T01:08:24.633Z,14.52
2022-09-13T01:10:51.301Z,15.38
2022-09-13T01:13:20.846Z,17.75
2022-09-13T01:15:47.333Z,15.65
2022-09-13T01:18:13.834Z,19.70
2022-09-13T01:20:48.483Z,15.27
2022-09-13T01:23:24.217Z,13.45
2022-09-13T01:25:50.643Z,16.38
2022-09-13T01:28:17.064Z,17.43
2022-09-13T01:30:44.641Z,15.77
2022-09-13T01:33:26.475Z,15.82
2022-09-13T01:36:22.523Z,14.30
2022-09-13T01:39:04.080Z,14.65
2022-09-13T01:41:33.877Z,12.23
2022-09-13T01:44:04.788Z,14.35
2022-09-13T01:46:32.857Z,13.00
2022-09-13T01:49:17.923Z,11.17
2022-09-13T01:51:47.227Z,12.10
2022-09-13T01:54:16.776Z,12.25
2022-09-13T01:56:46.125Z,14.07
2022-09-13T01:59:28.189Z,13.52
2022-09-13T02:01:56.304Z,10.85
2022-09-13T02:04:27.588Z,9.80
2022-09-13T02:07:05.415Z,11.02
2022-09-13T02:09:33.223Z,10.40
2022-09-13T02:12:02.318Z,11.60
2022-09-13T02:14:30.701Z,8.93
2022-09-13T02:17:00.838Z,17.15
2022-09-13T02:19:34.067Z,12.63
2022-09-13T02:22:01.084Z,13.03
2022-09-13T02:24:37.536Z,10.73
2022-09-13T02:27:05.454Z,11.93
2022-09-13T02:29:31.891Z,10.60
2022-09-13T02:32:01.540Z,13.27
2022-09-13T02:34:31.347Z,9.93
2022-09-13T02:36:57.791Z,11.80
2022-09-13T02:39:25.607Z,9.27
2022-09-13T02:41:53.191Z,10.83
2022-09-13T02:44:19.626Z,8.35
2022-09-13T02:47:05.489Z,11.13
2022-09-13T02:49:41.230Z,8.73
2022-09-13T02:52:14.634Z,13.77
2022-09-13T02:54:48.940Z,11.37
2022-09-13T02:57:17.571Z,8.80
2022-09-13T02:59:45.565Z,10.77
2022-09-13T03:02:14.065Z,10.45
2022-09-13T03:04:40.571Z,14.48
2022-09-13T03:07:10.297Z,11.27
2022-09-13T03:09:36.749Z,14.00
2022-09-13T03:12:13.883Z,12.47
2022-09-13T03:14:47.075Z,12.13
2022-09-13T03:17:16.541Z,13.00
2022-09-13T03:19:42.969Z,24.17
2022-09-13T03:22:28.613Z,21.40
2022-09-13T03:25:06.418Z,19.17
2022-09-13T03:27:45.073Z,17.47
2022-09-13T03:30:14.628Z,13.57
2022-09-13T03:32:57.500Z,22.50
2022-09-13T03:35:23.951Z,24.53
2022-09-13T03:37:50.376Z,19.83
2022-09-13T03:40:24.336Z,17.23
2022-09-13T03:42:52.345Z,16.90
2022-09-13T03:45:19.143Z,18.77
2022-09-13T03:47:45.609Z,19.60
2022-09-13T03:50:13.113Z,23.20
2022-09-13T03:52:42.255Z,24.90
2022-09-13T03:55:12.521Z,29.63
2022-09-13T03:57:38.981Z,34.77
2022-09-13T04:00:07.851Z,31.87
2022-09-13T04:02:34.645Z,31.60
2022-09-13T04:05:01.739Z,25.40
2022-09-13T04:07:28.198Z,25.87
2022-09-13T04:09:54.679Z,26.30
2022-09-13T04:12:21.112Z,26.10
2022-09-13T04:14:47.608Z,25.30
2022-09-13T04:17:14.417Z,24.97
2022-09-13T04:19:41.057Z,21.97
2022-09-13T04:22:07.555Z,23.50
2022-09-13T04:24:34.089Z,20.50
2022-09-13T04:27:01.004Z,20.00
2022-09-13T04:29:27.496Z,21.87
2022-09-13T04:31:54.277Z,21.53
2022-09-13T04:34:22.561Z,18.20
2022-09-13T04:36:49.233Z,16.13
2022-09-13T04:39:15.783Z,21.27
2022-09-13T04:41:44.984Z,20.93
2022-09-13T04:44:11.574Z,19.97
2022-09-13T04:46:38.056Z,21.33
2022-09-13T04:49:04.521Z,27.40
2022-09-13T04:51:31.013Z,24.43
2022-09-13T04:53:57.461Z,23.17
2022-09-13T04:56:24.109Z,23.60
2022-09-13T04:58:51.025Z,23.70
2022-09-13T05:01:17.839Z,21.70
2022-09-13T05:03:44.575Z,22.13
2022-09-13T05:06:11.986Z,19.90
2022-09-13T05:08:38.730Z,23.47
2022-09-13T05:11:05.403Z,22.00
2022-09-13T05:13:32.083Z,19.73
2022-09-13T05:15:59.080Z,20.57
2022-09-13T05:18:29.119Z,20.47
2022-09-13T05:20:55.921Z,20.97
2022-09-13T05:23:22.780Z,21.37
2022-09-13T05:25:52.985Z,21.40
2022-09-13T05:28:19.501Z,19.83
2022-09-13T05:30:53.886Z,20.92
2022-09-13T05:33:21.914Z,18.30
2022-09-13T05:35:48.323Z,19.80
2022-09-13T05:38:14.985Z,26.57
2022-09-13T05:40:41.518Z,26.57
2022-09-13T05:43:08.233Z,24.77
2022-09-13T05:45:34.769Z,26.00
2022-09-13T05:48:01.743Z,24.95
2022-09-13T05:50:56.914Z,22.40
2022-09-13T05:53:14.657Z,20.58
2022-09-13T05:55:41.070Z,20.02
2022-09-13T05:58:07.497Z,21.25
2022-09-13T06:00:34.263Z,21.20
2022-09-13T06:03:00.931Z,18.10
2022-09-13T06:05:31.644Z,14.48
2022-09-13T06:07:58.379Z,18.17
2022-09-13T06:10:25.501Z,14.10
2022-09-13T06:12:51.988Z,16.45
2022-09-13T06:15:18.856Z,16.75
2022-09-13T06:17:46.105Z,16.50
2022-09-13T06:20:12.629Z,13.70
2022-09-13T06:22:39.357Z,13.80
2022-09-13T06:25:06.100Z,15.70
2022-09-13T06:27:32.531Z,17.25
2022-09-13T06:29:58.976Z,15.13
2022-09-13T06:32:25.628Z,13.80
2022-09-13T06:34:52.290Z,17.80
2022-09-13T06:37:18.821Z,11.48
2022-09-13T06:39:45.365Z,14.07
2022-09-13T06:42:11.875Z,14.13
2022-09-13T06:44:38.353Z,12.73
2022-09-13T06:47:04.838Z,15.02
2022-09-13T06:49:31.775Z,12.07
2022-09-13T06:51:58.352Z,12.27
2022-09-13T06:54:24.828Z,14.30
2022-09-13T06:56:51.596Z,12.07
2022-09-13T06:59:18.533Z,13.25
2022-09-13T07:01:45.266Z,13.13
2022-09-13T07:04:15.803Z,9.45
2022-09-13T07:06:42.956Z,14.60
2022-09-13T07:09:11.077Z,14.32
2022-09-13T07:11:38.179Z,15.82
2022-09-13T07:14:04.863Z,13.70
2022-09-13T07:16:31.754Z,12.43
2022-09-13T07:18:58.443Z,13.02
2022-09-13T07:21:25.144Z,13.93
2022-09-13T07:23:51.925Z,15.43
2022-09-13T07:26:18.411Z,11.23
2022-09-13T07:28:45.514Z,13.32
2022-09-13T07:31:13.099Z,11.95
2022-09-13T07:33:40.213Z,14.13
2022-09-13T07:36:06.909Z,10.70
2022-09-13T07:38:36.665Z,12.15
2022-09-13T07:41:05.310Z,12.70
2022-09-13T07:43:31.954Z,12.80
2022-09-13T07:45:59.185Z,13.00
2022-09-13T07:48:28.599Z,10.13
2022-09-13T07:51:05.045Z,13.80
2022-09-13T07:53:31.948Z,13.18
2022-09-13T07:56:04.579Z,12.05
2022-09-13T07:58:31.232Z,8.70
2022-09-13T08:00:58.955Z,8.82
2022-09-13T08:03:25.492Z,13.18
2022-09-13T08:05:51.917Z,8.93
2022-09-13T08:08:20.154Z,7.82
2022-09-13T08:10:49.451Z,8.43
2022-09-13T08:13:16.672Z,7.85
2022-09-13T08:15:43.479Z,9.15
2022-09-13T08:18:10.022Z,8.18
2022-09-13T08:20:37.878Z,7.95
2022-09-13T08:23:06.169Z,7.22
2022-09-13T08:25:35.880Z,6.53
2022-09-13T08:28:02.783Z,7.13
2022-09-13T08:30:33.309Z,5.55
2022-09-13T08:33:00.495Z,6.88
2022-09-13T08:35:27.082Z,5.00
2022-09-13T08:37:56.492Z,6.43
2022-09-13T08:40:23.080Z,4.18
2022-09-13T08:43:06.919Z,5.32
2022-09-13T08:45:33.409Z,7.30
2022-09-13T08:48:02.311Z,5.32
2022-09-13T08:50:30.178Z,5.75
2022-09-13T08:53:02.327Z,3.58
2022-09-13T08:55:41.168Z,3.85
2022-09-13T08:58:19.283Z,4.45
2022-09-13T09:00:48.337Z,5.50
2022-09-13T09:03:33.592Z,3.53
2022-09-13T09:06:00.104Z,4.68
2022-09-13T09:08:27.363Z,5.72
2022-09-13T09:10:54.014Z,5.47
2022-09-13T09:13:30.532Z,7.63
2022-09-13T09:15:58.961Z,6.20
2022-09-13T09:18:25.949Z,6.55
2022-09-13T09:21:00.136Z,3.33
2022-09-13T09:23:29.084Z,4.28
2022-09-13T09:25:57.199Z,5.10
2022-09-13T09:28:25.135Z,4.40
2022-09-13T09:30:58.997Z,6.75
2022-09-13T09:33:28.358Z,3.92
2022-09-13T09:35:54.777Z,3.35
2022-09-13T09:38:21.218Z,3.35
2022-09-13T09:40:47.766Z,4.93
2022-09-13T09:43:15.637Z,3.63
2022-09-13T09:45:42.971Z,4.20
2022-09-13T09:48:13.212Z,4.95
2022-09-13T09:50:43.549Z,3.25
2022-09-13T09:53:19.184Z,1.98
2022-09-13T09:55:45.926Z,2.10
2022-09-13T09:58:16.855Z,2.05
2022-09-13T10:00:53.018Z,2.83
2022-09-13T10:03:29.255Z,2.75
2022-09-13T10:06:08.728Z,2.15
2022-09-13T10:08:36.677Z,1.95
2022-09-13T10:11:03.609Z,3.47
2022-09-13T10:13:31.904Z,2.35
2022-09-13T10:16:28.305Z,3.65
2022-09-13T10:18:55.762Z,2.13
2022-09-13T10:21:23.769Z,2.05
2022-09-13T10:23:50.584Z,2.50
2022-09-13T10:26:23.698Z,5.25
2022-09-13T10:28:50.197Z,3.70
2022-09-13T10:31:17.604Z,3.38
2022-09-13T10:33:50.473Z,4.75
2022-09-13T10:36:35.258Z,4.50
2022-09-13T10:39:06.288Z,3.15
2022-09-13T10:41:33.937Z,2.55
2022-09-13T10:44:01.193Z,3.50
2022-09-13T10:46:28.878Z,6.88
2022-09-13T10:48:58.402Z,2.50
2022-09-13T10:51:28.010Z,3.03
2022-09-13T10:54:15.285Z,2.58
2022-09-13T10:56:43.734Z,2.25
2022-09-13T10:59:25.665Z,3.35
2022-09-13T11:01:58.344Z,3.58
2022-09-13T11:04:48.334Z,3.53
2022-09-13T11:07:17.222Z,2.63
2022-09-13T11:09:52.770Z,2.97
2022-09-13T11:12:22.276Z,2.97
2022-09-13T11:14:52.139Z,1.77
2022-09-13T11:17:30.806Z,5.18
2022-09-13T11:19:57.493Z,3.03
2022-09-13T11:22:27.581Z,2.10
2022-09-13T11:25:13.866Z,1.77
2022-09-13T11:27:40.402Z,1.50
2022-09-13T11:30:15.744Z,2.53
2022-09-13T11:32:45.255Z,1.73
2022-09-13T11:35:30.645Z,1.80
2022-09-13T11:38:06.132Z,2.90
2022-09-13T11:40:35.317Z,1.98
2022-09-13T11:43:17.105Z,1.63
2022-09-13T11:45:46.652Z,1.70
2022-09-13T11:48:13.225Z,1.48
2022-09-13T11:50:58.601Z,2.20
2022-09-13T11:53:39.413Z,1.40
2022-09-13T11:56:10.715Z,1.63
2022-09-13T11:58:48.650Z,3.63
2022-09-13T12:01:17.509Z,4.55
2022-09-13T12:03:47.297Z,1.70
2022-09-13T12:06:15.785Z,1.40
2022-09-13T12:08:45.991Z,1.77
2022-09-13T12:11:16.010Z,1.70
2022-09-13T12:14:03.088Z,1.58
2022-09-13T12:16:37.030Z,1.77
2022-09-13T12:19:15.851Z,1.50
2022-09-13T12:21:42.472Z,2.85
2022-09-13T12:24:17.021Z,1.52
2022-09-13T12:26:52.780Z,2.00
2022-09-13T12:29:24.591Z,1.45
2022-09-13T12:31:51.109Z,1.70
2022-09-13T12:34:20.424Z,3.83
2022-09-13T12:36:49.943Z,1.95
2022-09-13T12:39:31.691Z,2.20
2022-09-13T12:41:58.131Z,1.42
2022-09-13T12:44:43.560Z,1.90
2022-09-13T12:47:16.516Z,1.60
2022-09-13T12:49:50.131Z,2.75
2022-09-13T12:52:21.390Z,1.90
2022-09-13T12:55:06.587Z,2.13
2022-09-13T12:57:40.036Z,1.60
2022-09-13T13:00:16.760Z,1.48
2022-09-13T13:02:45.074Z,2.03
2022-09-13T13:05:17.651Z,3.08
2022-09-13T13:07:49.773Z,1.73
2022-09-13T13:10:48.830Z,1.98
2022-09-13T13:13:22.721Z,2.35
2022-09-13T13:15:50.314Z,1.73
2022-09-13T13:18:20.881Z,1.75
2022-09-13T13:20:56.505Z,2.15
2022-09-13T13:23:23.719Z,2.47
2022-09-13T13:26:01.154Z,1.70
2022-09-13T13:28:43.082Z,2.35
2022-09-13T13:31:10.422Z,3.88
2022-09-13T13:33:49.946Z,3.80
2022-09-13T13:36:29.655Z,1.63
2022-09-13T13:38:56.657Z,1.77
2022-09-13T13:41:36.787Z,1.75
2022-09-13T13:44:24.024Z,2.13
2022-09-13T13:47:08.594Z,5.97
2022-09-13T13:49:35.445Z,1.67
2022-09-13T13:52:08.299Z,3.35
2022-09-13T13:54:50.419Z,2.35
2022-09-13T13:57:23.054Z,2.80
2022-09-13T13:59:50.028Z,1.90
2022-09-13T14:02:17.604Z,3.50
2022-09-13T14:05:03.252Z,3.30
2022-09-13T14:07:48.257Z,1.73
2022-09-13T14:10:18.047Z,1.88
2022-09-13T14:13:04.773Z,2.88
2022-09-13T14:15:51.530Z,2.47
2022-09-13T14:18:30.932Z,2.88
2022-09-13T14:21:17.691Z,3.97
2022-09-13T14:23:44.141Z,3.20
2022-09-13T14:26:10.699Z,3.25
2022-09-13T14:28:37.154Z,2.00
2022-09-13T14:31:03.999Z,1.98
2022-09-13T14:33:35.233Z,2.17
2022-09-13T14:36:03.319Z,1.45
2022-09-13T14:38:35.494Z,3.78
2022-09-13T14:41:15.492Z,2.13
2022-09-13T14:43:42.157Z,3.28
2022-09-13T14:46:13.691Z,1.95
2022-09-13T14:48:40.324Z,2.22
2022-09-13T14:51:09.192Z,2.70
2022-09-13T14:53:35.694Z,1.60
2022-09-13T14:56:05.236Z,3.65
2022-09-13T14:58:39.779Z,3.90
2022-09-13T15:01:07.361Z,2.40
2022-09-13T15:03:34.346Z,4.50
2022-09-13T15:06:01.700Z,2.20
2022-09-13T15:08:34.712Z,2.55
2022-09-13T15:11:01.912Z,2.67
2022-09-13T15:13:28.520Z,1.35
2022-09-13T15:15:55.134Z,1.35
2022-09-13T15:18:23.902Z,1.50
2022-09-13T15:20:56.653Z,2.38
2022-09-13T15:23:28.205Z,3.67
2022-09-13T15:26:15.031Z,3.33
2022-09-13T15:28:41.626Z,1.92
2022-09-13T15:31:08.214Z,1.40
2022-09-13T15:33:35.863Z,1.48
2022-09-13T15:36:20.701Z,2.05
2022-09-13T15:38:58.062Z,2.10
2022-09-13T15:41:28.132Z,1.80
2022-09-13T15:43:54.598Z,1.48
2022-09-13T15:46:21.091Z,1.50
2022-09-13T15:48:51.180Z,3.28
2022-09-13T15:51:17.891Z,1.70
2022-09-13T15:53:44.735Z,4.45
2022-09-13T15:56:13.244Z,2.90
2022-09-13T15:58:39.795Z,1.52
2022-09-13T16:01:06.838Z,4.22
2022-09-13T16:03:33.411Z,2.97
2022-09-13T16:05:59.938Z,2.75
2022-09-13T16:08:26.373Z,2.55
2022-09-13T16:10:52.883Z,2.38
2022-09-13T16:13:19.396Z,5.75
2022-09-13T16:15:45.928Z,1.77
2022-09-13T16:18:12.626Z,1.85
2022-09-13T16:20:39.379Z,2.33
2022-09-13T16:23:05.872Z,1.88
2022-09-13T16:25:32.420Z,1.98
2022-09-13T16:27:59.907Z,1.80
2022-09-13T16:30:30.496Z,1.63
2022-09-13T16:32:57.035Z,2.47
2022-09-13T16:35:24.638Z,2.22
2022-09-13T16:37:52.180Z,1.45
2022-09-13T16:40:19.281Z,1.90
2022-09-13T16:42:46.444Z,1.33
2022-09-13T16:45:12.979Z,3.28
2022-09-13T16:47:39.570Z,3.30
2022-09-13T16:50:06.624Z,3.25
2022-09-13T16:52:33.510Z,3.70
2022-09-13T16:55:00.210Z,1.77
2022-09-13T16:57:26.889Z,3.20
2022-09-13T16:59:54.355Z,4.90
2022-09-13T17:02:21.428Z,1.85
2022-09-13T17:04:48.797Z,2.00
2022-09-13T17:07:15.894Z,3.60
2022-09-13T17:09:43.488Z,2.05
2022-09-13T17:12:11.425Z,3.75
2022-09-13T17:14:39.495Z,2.00
2022-09-13T17:17:07.073Z,4.95
2022-09-13T17:19:37.010Z,2.10
2022-09-13T17:22:04.577Z,3.78
2022-09-13T17:24:31.582Z,3.78
2022-09-13T17:27:01.209Z,4.97
2022-09-13T17:29:31.450Z,3.78
2022-09-13T17:31:58.537Z,3.45
2022-09-13T17:34:25.580Z,5.53
2022-09-13T17:36:52.683Z,4.05
2022-09-13T17:39:19.827Z,2.50
2022-09-13T17:41:49.220Z,3.28
2022-09-13T17:44:16.471Z,2.47
2022-09-13T17:46:43.239Z,1.95
2022-09-13T17:49:10.364Z,3.08
2022-09-13T17:51:37.549Z,2.60
2022-09-13T17:54:06.162Z,4.38
2022-09-13T17:56:34.208Z,4.93
2022-09-13T17:59:09.647Z,3.15
2022-09-13T18:01:37.406Z,6.90
2022-09-13T18:04:04.151Z,2.65
2022-09-13T18:06:30.707Z,3.72
2022-09-13T18:08:58.916Z,3.95
2022-09-13T18:11:26.062Z,4.10
2022-09-13T18:13:52.645Z,3.22
2022-09-13T18:16:26.309Z,3.38
2022-09-13T18:18:53.509Z,4.15
2022-09-13T18:21:21.284Z,4.10
2022-09-13T18:23:48.406Z,3.80
2022-09-13T18:26:16.001Z,4.22
2022-09-13T18:28:45.575Z,3.50
2022-09-13T18:31:16.782Z,4.78
2022-09-13T18:33:43.617Z,3.53
2022-09-13T18:36:11.630Z,4.80
2022-09-13T18:38:41.886Z,5.18
2022-09-13T18:41:14.972Z,6.22
2022-09-13T18:43:42.170Z,4.50
2022-09-13T18:46:10.508Z,4.30
2022-09-13T18:48:39.529Z,3.03
2022-09-13T18:51:06.351Z,5.88
2022-09-13T18:53:35.134Z,3.75
2022-09-13T18:56:03.589Z,4.22
2022-09-13T18:58:32.284Z,3.88
2022-09-13T19:01:06.770Z,4.60
2022-09-13T19:03:36.043Z,4.43
2022-09-13T19:06:11.977Z,3.97
2022-09-13T19:08:38.606Z,3.17
2022-09-13T19:11:19.175Z,5.60
2022-09-13T19:13:54.507Z,4.30
2022-09-13T19:16:22.271Z,4.85
2022-09-13T19:18:54.840Z,4.50
2022-09-13T19:21:22.944Z,4.18
2022-09-13T19:23:59.478Z,5.07
2022-09-13T19:26:31.345Z,4.15
2022-09-13T19:29:01.141Z,4.43
2022-09-13T19:31:27.976Z,4.13
2022-09-13T19:33:56.475Z,6.60
2022-09-13T19:36:24.508Z,5.65
2022-09-13T19:38:52.277Z,4.60
2022-09-13T19:41:20.689Z,4.32
2022-09-13T19:50:13.349Z,4.90
2022-09-13T19:52:43.703Z,5.10
2022-09-13T19:55:10.612Z,4.93
2022-09-13T19:57:37.099Z,6.45
2022-09-13T20:00:07.012Z,6.05
2022-09-13T20:02:37.062Z,5.22
2022-09-13T20:12:41.547Z,5.30
2022-09-13T20:18:33.948Z,5.25
2022-09-13T20:21:04.811Z,4.97
2022-09-13T20:23:34.437Z,5.55
2022-09-13T20:26:01.543Z,4.95
2022-09-13T20:28:29.035Z,7.38
2022-09-13T20:30:56.566Z,4.93
2022-09-13T20:33:24.154Z,4.25
2022-09-13T20:35:50.807Z,3.97
2022-09-13T20:38:18.880Z,4.00
2022-09-13T20:40:46.587Z,3.80
2022-09-13T20:43:13.953Z,4.05
2022-09-13T20:45:41.205Z,3.88
2022-09-13T20:48:08.153Z,3.95
2022-09-13T20:50:35.329Z,2.95
2022-09-13T20:53:03.361Z,3.53
2022-09-13T20:55:30.015Z,5.50
2022-09-13T20:57:56.567Z,4.55
2022-09-13T21:00:23.597Z,3.22
2022-09-13T21:02:50.173Z,4.80
2022-09-13T21:05:16.881Z,4.60
2022-09-13T21:08:02.253Z,5.40
2022-09-13T21:10:29.054Z,3.25
2022-09-13T21:12:56.787Z,3.33
2022-09-13T21:15:23.306Z,3.90
2022-09-13T21:17:50.351Z,3.75
2022-09-13T21:20:17.025Z,4.18
2022-09-13T21:22:45.165Z,3.03
2022-09-13T21:25:11.679Z,2.92
2022-09-13T21:27:38.113Z,3.13
2022-09-13T21:30:04.856Z,4.28
2022-09-13T21:32:31.359Z,2.42
2022-09-13T21:34:57.846Z,2.67
2022-09-13T21:37:24.299Z,2.88
2022-09-13T21:39:50.922Z,2.42
2022-09-13T21:42:17.416Z,5.10
2022-09-13T21:44:43.843Z,2.67
2022-09-13T21:47:10.521Z,2.85
2022-09-13T21:49:36.994Z,3.10
2022-09-13T21:52:03.459Z,4.18
2022-09-13T21:54:29.969Z,4.60
2022-09-13T21:56:56.422Z,2.90
2022-09-13T21:59:23.276Z,3.15
2022-09-13T22:01:51.412Z,3.55
2022-09-13T22:04:19.314Z,3.17
2022-09-13T22:06:46.168Z,3.25
2022-09-13T22:09:12.827Z,4.80
2022-09-13T22:11:40.079Z,2.22
2022-09-13T22:14:07.315Z,4.88
2022-09-13T22:16:34.689Z,2.72
2022-09-13T22:19:07.949Z,2.75
2022-09-13T22:21:36.157Z,2.67
2022-09-13T22:24:03.160Z,2.85
2022-09-13T22:26:30.263Z,2.83
2022-09-13T22:28:58.336Z,2.30
2022-09-13T22:31:26.021Z,3.17
2022-09-13T22:33:53.024Z,3.60
2022-09-13T22:36:19.867Z,3.25
2022-09-13T22:38:47.076Z,2.25
2022-09-13T22:41:15.477Z,2.90
2022-09-13T22:44:46.608Z,4.03
2022-09-13T22:47:13.926Z,2.45
2022-09-13T22:49:40.972Z,3.15
2022-09-13T22:52:08.212Z,5.75
2022-09-13T22:54:35.234Z,2.40
2022-09-13T22:57:01.784Z,2.97
2022-09-13T22:59:28.294Z,1.90
2022-09-13T23:01:54.763Z,2.63
2022-09-13T23:04:21.240Z,1.80
2022-09-13T23:06:47.750Z,2.45
2022-09-13T23:09:14.928Z,2.30
2022-09-13T23:11:42.250Z,2.10
2022-09-13T23:14:12.315Z,2.22
2022-09-13T23:16:39.826Z,3.92
2022-09-13T23:19:06.322Z,3.08
2022-09-13T23:21:33.798Z,3.10
2022-09-13T23:24:00.469Z,2.53
2022-09-13T23:26:27.028Z,2.03
2022-09-13T23:28:55.552Z,2.08
2022-09-13T23:31:23.381Z,2.53
2022-09-13T23:33:50.462Z,2.38
2022-09-13T23:36:17.705Z,3.03
2022-09-13T23:38:47.784Z,2.00
2022-09-13T23:41:14.851Z,2.17
2022-09-13T23:43:41.314Z,3.08
2022-09-13T23:46:07.899Z,2.95
2022-09-13T23:48:35.221Z,2.28
2022-09-13T23:51:04.509Z,2.15
2022-09-13T23:53:30.990Z,2.42
2022-09-13T23:55:57.514Z,2.08
2022-09-13T23:58:23.998Z,2.30
